createdAt,value
2018-01-02T00:00:16.850Z,0.00
2018-01-02T00:01:16.830Z,0.00
2018-01-02T00:02:16.809Z,0.00
2018-01-02T00:03:16.762Z,0.00
2018-01-02T00:04:16.740Z,0.00
2018-01-02T00:05:16.725Z,0.00
2018-01-02T00:06:16.739Z,0.00
2018-01-02T00:07:16.719Z,0.00
2018-01-02T00:08:16.673Z,0.00
2018-01-02T00:09:16.650Z,0.00
2018-01-02T00:10:16.666Z,0.00
2018-01-02T00:11:16.649Z,0.00
2018-01-02T00:12:16.630Z,0.00
2018-01-02T00:13:16.584Z,0.00
2018-01-02T00:14:16.562Z,0.00
2018-01-02T00:15:16.556Z,0.00
2018-01-02T00:16:16.526Z,0.00
2018-01-02T00:17:16.502Z,0.00
2018-01-02T00:18:16.487Z,0.00
2018-01-02T00:19:16.467Z,0.00
2018-01-02T00:20:16.484Z,0.00
2018-01-02T00:21:16.466Z,0.00
2018-01-02T00:22:16.410Z,0.00
2018-01-02T00:23:16.397Z,0.00
2018-01-02T00:24:16.379Z,0.00
2018-01-02T00:25:16.356Z,0.00
2018-01-02T00:26:16.341Z,0.00
2018-01-02T00:27:16.339Z,0.00
2018-01-02T00:28:16.320Z,0.00
2018-01-02T00:29:16.316Z,0.00
2018-01-02T00:30:16.265Z,0.00
2018-01-02T00:31:16.280Z,0.00
2018-01-02T00:32:16.228Z,0.00
2018-01-02T00:33:16.245Z,0.00
2018-01-02T00:34:16.195Z,0.00
2018-01-02T00:35:16.209Z,0.00
2018-01-02T00:36:16.173Z,0.00
2018-01-02T00:37:16.138Z,0.00
2018-01-02T00:38:16.135Z,0.00
2018-01-02T00:39:16.134Z,0.00
2018-01-02T00:40:16.083Z,0.00
2018-01-02T00:41:16.097Z,0.00
2018-01-02T00:42:16.046Z,0.00
2018-01-02T00:43:16.058Z,0.00
2018-01-02T00:44:16.009Z,0.00
2018-01-02T00:45:15.995Z,0.00
2018-01-02T00:46:15.974Z,0.00
2018-01-02T00:47:15.948Z,0.00
2018-01-02T00:48:15.933Z,0.00
2018-01-02T00:49:15.917Z,0.00
2018-01-02T00:50:15.899Z,0.00
2018-01-02T00:51:15.916Z,0.00
2018-01-02T00:52:15.862Z,0.00
2018-01-02T00:53:15.858Z,0.00
2018-01-02T00:54:15.838Z,0.00
2018-01-02T00:55:15.841Z,0.00
2018-01-02T00:56:15.787Z,0.00
2018-01-02T00:57:15.767Z,0.00
2018-01-02T00:58:15.758Z,0.00
2018-01-02T00:59:15.747Z,0.00
2018-01-02T01:00:15.745Z,0.00
2018-01-02T01:01:15.728Z,0.00
2018-01-02T01:02:15.699Z,0.00
2018-01-02T01:03:15.694Z,0.00
2018-01-02T01:04:15.655Z,0.00
2018-01-02T01:05:15.653Z,0.00
2018-01-02T01:06:16.219Z,0.00
2018-01-02T01:07:15.591Z,0.00
2018-01-02T01:08:15.587Z,0.00
2018-01-02T01:09:15.567Z,0.00
2018-01-02T01:10:15.560Z,0.00
2018-01-02T01:11:15.511Z,0.00
2018-01-02T01:12:15.496Z,0.00
2018-01-02T01:13:15.473Z,0.00
2018-01-02T01:14:15.489Z,0.00
2018-01-02T01:15:15.468Z,0.00
2018-01-02T01:16:15.426Z,0.00
2018-01-02T01:17:15.434Z,0.00
2018-01-02T01:18:15.380Z,0.00
2018-01-02T01:19:15.395Z,0.00
2018-01-02T01:20:15.380Z,0.00
2018-01-02T01:21:15.362Z,0.00
2018-01-02T01:22:15.344Z,0.00
2018-01-02T01:23:15.324Z,0.00
2018-01-02T01:24:15.304Z,0.00
2018-01-02T01:25:15.248Z,0.00
2018-01-02T01:26:15.266Z,0.00
2018-01-02T01:27:15.215Z,0.00
2018-01-02T01:28:15.196Z,0.00
2018-01-02T01:29:15.217Z,0.00
2018-01-02T01:30:15.160Z,0.00
2018-01-02T01:31:15.144Z,0.00
2018-01-02T01:32:15.141Z,0.00
2018-01-02T01:33:15.143Z,0.00
2018-01-02T01:34:15.107Z,0.00
2018-01-02T01:35:15.072Z,0.00
2018-01-02T01:36:15.063Z,0.00
2018-01-02T01:37:15.068Z,0.00
2018-01-02T01:38:15.037Z,0.00
2018-01-02T01:39:15.012Z,0.00
2018-01-02T01:40:15.009Z,0.00
2018-01-02T01:41:14.960Z,0.00
2018-01-02T01:42:14.976Z,0.00
2018-01-02T01:43:14.920Z,0.00
2018-01-02T01:44:14.939Z,0.00
2018-01-02T01:45:14.887Z,0.00
2018-01-02T01:46:14.866Z,0.00
2018-01-02T01:47:14.846Z,0.00
2018-01-02T01:48:14.852Z,0.00
2018-01-02T01:49:14.826Z,0.00
2018-01-02T01:50:14.828Z,0.00
2018-01-02T01:51:14.777Z,0.00
2018-01-02T01:52:14.775Z,0.00
2018-01-02T01:53:14.740Z,0.00
2018-01-02T01:54:14.724Z,0.00
2018-01-02T01:55:14.704Z,0.00
2018-01-02T01:56:14.704Z,0.00
2018-01-02T01:57:14.666Z,0.00
2018-01-02T01:58:14.648Z,0.00
2018-01-02T01:59:14.627Z,0.00
2018-01-02T02:00:14.607Z,0.00
2018-01-02T02:01:14.607Z,0.00
2018-01-02T02:02:14.569Z,0.00
2018-01-02T02:03:14.556Z,0.00
2018-01-02T02:04:14.545Z,0.00
2018-01-02T02:05:14.520Z,0.00
2018-01-02T02:06:14.542Z,0.00
2018-01-02T02:07:14.481Z,0.00
2018-01-02T02:08:14.603Z,0.00
2018-01-02T02:09:14.449Z,0.00
2018-01-02T02:10:14.430Z,0.00
2018-01-02T02:11:14.406Z,0.00
2018-01-02T02:12:14.389Z,0.00
2018-01-02T02:13:14.405Z,0.00
2018-01-02T02:14:14.348Z,0.00
2018-01-02T02:15:14.369Z,0.00
2018-01-02T02:16:14.344Z,0.00
2018-01-02T02:17:14.292Z,0.00
2018-01-02T02:18:14.272Z,0.00
2018-01-02T02:19:14.293Z,0.00
2018-01-02T02:20:14.241Z,0.00
2018-01-02T02:21:14.236Z,0.00
2018-01-02T02:22:14.232Z,0.00
2018-01-02T02:23:14.183Z,0.00
2018-01-02T02:24:14.162Z,0.00
2018-01-02T02:25:14.145Z,0.00
2018-01-02T02:26:14.124Z,0.00
2018-01-02T02:27:14.146Z,0.00
2018-01-02T02:28:14.087Z,0.00
2018-01-02T02:29:14.072Z,0.00
2018-01-02T02:30:14.073Z,0.00
2018-01-02T02:31:14.039Z,0.00
2018-01-02T02:32:14.033Z,0.00
2018-01-02T02:33:14.027Z,0.00
2018-01-02T02:34:14.175Z,0.00
2018-01-02T02:35:13.990Z,0.00
2018-01-02T02:36:13.940Z,0.00
2018-01-02T02:37:13.957Z,0.00
2018-01-02T02:38:13.937Z,0.00
2018-01-02T02:39:13.918Z,0.00
2018-01-02T02:40:13.864Z,0.00
2018-01-02T02:41:13.843Z,0.00
2018-01-02T02:42:13.861Z,0.00
2018-01-02T02:43:13.842Z,0.00
2018-01-02T02:44:13.807Z,0.00
2018-01-02T02:45:13.776Z,0.00
2018-01-02T02:46:13.751Z,0.00
2018-01-02T02:47:13.732Z,0.00
2018-01-02T02:48:13.742Z,0.00
2018-01-02T02:49:13.718Z,0.00
2018-01-02T02:50:13.707Z,0.00
2018-01-02T02:51:13.658Z,0.00
2018-01-02T02:52:13.656Z,0.00
2018-01-02T02:53:13.652Z,0.00
2018-01-02T02:54:13.632Z,0.00
2018-01-02T02:55:13.613Z,0.00
2018-01-02T02:56:13.596Z,0.00
2018-01-02T02:57:13.581Z,0.00
2018-01-02T02:58:13.561Z,0.00
2018-01-02T02:59:13.541Z,0.00
2018-01-02T03:00:13.519Z,0.00
2018-01-02T03:01:13.501Z,0.00
2018-01-02T03:02:13.484Z,0.00
2018-01-02T03:03:13.432Z,0.00
2018-01-02T03:04:13.420Z,0.00
2018-01-02T03:05:13.432Z,0.00
2018-01-02T03:06:13.406Z,0.00
2018-01-02T03:07:13.387Z,0.00
2018-01-02T03:08:13.357Z,0.00
2018-01-02T03:09:13.354Z,0.00
2018-01-02T03:10:13.293Z,0.00
2018-01-02T03:11:13.282Z,0.00
2018-01-02T03:12:13.294Z,0.00
2018-01-02T03:13:13.245Z,0.00
2018-01-02T03:14:13.226Z,0.00
2018-01-02T03:15:13.240Z,0.00
2018-01-02T03:16:13.222Z,0.00
2018-01-02T03:17:13.202Z,0.00
2018-01-02T03:18:13.149Z,0.00
2018-01-02T03:19:13.156Z,0.00
2018-01-02T03:20:13.147Z,0.00
2018-01-02T03:21:13.107Z,0.00
2018-01-02T03:22:13.078Z,0.00
2018-01-02T03:23:13.056Z,0.00
2018-01-02T03:24:13.036Z,0.00
2018-01-02T03:25:13.016Z,0.00
2018-01-02T03:26:12.995Z,0.00
2018-01-02T03:27:12.983Z,0.00
2018-01-02T03:28:12.979Z,0.00
2018-01-02T03:29:12.963Z,0.00
2018-01-02T03:30:12.938Z,0.00
2018-01-02T03:31:12.898Z,0.00
2018-01-02T03:32:12.892Z,0.00
2018-01-02T03:33:12.907Z,0.00
2018-01-02T03:34:12.841Z,0.00
2018-01-02T03:35:12.827Z,0.00
2018-01-02T03:36:13.140Z,0.00
2018-01-02T03:37:12.824Z,0.00
2018-01-02T03:38:12.771Z,0.00
2018-01-02T03:39:12.774Z,0.00
2018-01-02T03:40:12.729Z,0.00
2018-01-02T03:41:12.711Z,0.00
2018-01-02T03:42:12.709Z,0.00
2018-01-02T03:43:12.690Z,0.00
2018-01-02T03:44:12.660Z,0.00
2018-01-02T03:45:12.671Z,0.00
2018-01-02T03:46:12.620Z,0.00
2018-01-02T03:47:12.630Z,0.00
2018-01-02T03:48:12.581Z,0.00
2018-01-02T03:49:12.592Z,0.00
2018-01-02T03:50:12.572Z,0.00
2018-01-02T03:51:12.526Z,0.00
2018-01-02T03:52:12.513Z,0.00
2018-01-02T03:53:12.491Z,0.00
2018-01-02T03:54:12.487Z,0.00
2018-01-02T03:55:12.450Z,0.00
2018-01-02T03:56:12.445Z,0.00
2018-01-02T03:57:12.446Z,0.00
2018-01-02T03:58:12.390Z,0.00
2018-01-02T03:59:12.377Z,0.00
2018-01-02T04:00:12.368Z,0.00
2018-01-02T04:01:12.362Z,0.00
2018-01-02T04:02:12.312Z,0.00
2018-01-02T04:03:12.310Z,0.00
2018-01-02T04:04:12.281Z,0.00
2018-01-02T04:05:12.257Z,0.00
2018-01-02T04:06:12.250Z,0.00
2018-01-02T04:07:12.216Z,0.00
2018-01-02T04:08:12.194Z,0.00
2018-01-02T04:09:12.181Z,0.00
2018-01-02T04:10:12.160Z,0.00
2018-01-02T04:11:12.142Z,0.00
2018-01-02T04:12:12.161Z,0.00
2018-01-02T04:13:12.133Z,0.00
2018-01-02T04:14:12.086Z,0.00
2018-01-02T04:15:12.071Z,0.00
2018-01-02T04:16:12.085Z,0.00
2018-01-02T04:17:12.025Z,0.00
2018-01-02T04:18:12.008Z,0.00
2018-01-02T04:19:11.989Z,0.00
2018-01-02T04:20:11.968Z,0.00
2018-01-02T04:21:11.959Z,0.00
2018-01-02T04:22:11.962Z,0.00
2018-01-02T04:23:11.950Z,0.00
2018-01-02T04:24:11.927Z,0.00
2018-01-02T04:25:11.915Z,0.00
2018-01-02T04:26:11.853Z,0.00
2018-01-02T04:27:11.842Z,0.00
2018-01-02T04:28:11.830Z,0.00
2018-01-02T04:29:11.828Z,0.00
2018-01-02T04:30:11.792Z,0.00
2018-01-02T04:31:11.763Z,0.00
2018-01-02T04:32:11.758Z,0.00
2018-01-02T04:33:11.726Z,0.00
2018-01-02T04:34:11.720Z,0.00
2018-01-02T04:35:11.717Z,0.00
2018-01-02T04:36:11.662Z,0.00
2018-01-02T04:37:11.648Z,0.00
2018-01-02T04:38:11.621Z,0.00
2018-01-02T04:39:11.619Z,0.00
2018-01-02T04:40:11.588Z,0.00
2018-01-02T04:41:11.576Z,0.00
2018-01-02T04:42:11.578Z,0.00
2018-01-02T04:43:11.559Z,0.00
2018-01-02T04:44:11.510Z,0.00
2018-01-02T04:45:11.522Z,0.00
2018-01-02T04:46:11.500Z,0.00
2018-01-02T04:47:11.452Z,0.00
2018-01-02T04:48:11.433Z,0.00
2018-01-02T04:49:11.414Z,0.00
2018-01-02T04:50:11.433Z,0.00
2018-01-02T04:51:11.374Z,0.00
2018-01-02T04:52:11.358Z,0.00
2018-01-02T04:53:11.332Z,0.00
2018-01-02T04:54:11.312Z,0.00
2018-01-02T04:55:11.310Z,0.00
2018-01-02T04:56:11.280Z,0.00
2018-01-02T04:57:11.255Z,0.00
2018-01-02T04:58:11.239Z,0.00
2018-01-02T04:59:11.222Z,0.00
2018-01-02T05:00:11.234Z,0.00
2018-01-02T05:01:11.214Z,0.00
2018-01-02T05:02:11.161Z,0.00
2018-01-02T05:03:11.142Z,0.00
2018-01-02T05:04:11.125Z,0.00
2018-01-02T05:05:11.137Z,0.00
2018-01-02T05:06:11.084Z,0.00
2018-01-02T05:07:11.081Z,0.00
2018-01-02T05:08:11.050Z,0.00
2018-01-02T05:09:11.030Z,0.00
2018-01-02T05:10:11.039Z,0.00
2018-01-02T05:11:10.986Z,0.00
2018-01-02T05:12:10.997Z,0.00
2018-01-02T05:13:10.950Z,0.00
2018-01-02T05:14:10.959Z,0.00
2018-01-02T05:15:10.946Z,0.00
2018-01-02T05:16:10.888Z,0.00
2018-01-02T05:17:10.869Z,0.00
2018-01-02T05:18:10.852Z,0.00
2018-01-02T05:19:10.862Z,0.00
2018-01-02T05:20:10.810Z,0.00
2018-01-02T05:21:10.789Z,0.00
2018-01-02T05:22:10.807Z,0.00
2018-01-02T05:23:10.783Z,0.00
2018-01-02T05:24:10.773Z,0.00
2018-01-02T05:25:10.730Z,0.00
2018-01-02T05:26:10.694Z,0.00
2018-01-02T05:27:10.677Z,0.00
2018-01-02T05:28:10.656Z,0.00
2018-01-02T05:29:10.633Z,0.00
2018-01-02T05:30:10.650Z,0.00
2018-01-02T05:31:10.634Z,0.00
2018-01-02T05:32:10.580Z,0.00
2018-01-02T05:33:10.574Z,0.00
2018-01-02T05:34:10.555Z,0.00
2018-01-02T05:35:10.540Z,0.00
2018-01-02T05:36:10.512Z,0.00
2018-01-02T05:37:10.513Z,0.00
2018-01-02T05:38:10.497Z,0.00
2018-01-02T05:39:10.437Z,0.00
2018-01-02T05:40:10.439Z,0.00
2018-01-02T05:41:10.403Z,0.00
2018-01-02T05:42:10.379Z,0.00
2018-01-02T05:43:10.359Z,0.00
2018-01-02T05:44:10.341Z,0.00
2018-01-02T05:45:10.335Z,0.00
2018-01-02T05:46:10.318Z,0.00
2018-01-02T05:47:10.283Z,0.00
2018-01-02T05:48:10.265Z,0.00
2018-01-02T05:49:10.241Z,0.00
2018-01-02T05:50:10.222Z,0.00
2018-01-02T05:51:10.207Z,0.00
2018-01-02T05:52:10.224Z,0.00
2018-01-02T05:53:10.199Z,0.00
2018-01-02T05:54:10.152Z,0.00
2018-01-02T05:55:10.127Z,0.00
2018-01-02T05:56:10.141Z,0.00
2018-01-02T05:57:10.096Z,0.00
2018-01-02T05:58:10.073Z,0.00
2018-01-02T05:59:10.046Z,0.00
2018-01-02T06:00:10.027Z,0.00
2018-01-02T06:01:10.022Z,0.00
2018-01-02T06:02:09.988Z,0.00
2018-01-02T06:03:10.006Z,0.00
2018-01-02T06:04:09.954Z,0.00
2018-01-02T06:05:09.964Z,0.00
2018-01-02T06:06:09.944Z,0.00
2018-01-02T06:07:09.891Z,0.00
2018-01-02T06:08:09.905Z,0.00
2018-01-02T06:09:09.846Z,0.00
2018-01-02T06:10:09.831Z,0.00
2018-01-02T06:11:09.847Z,0.00
2018-01-02T06:12:09.829Z,0.00
2018-01-02T06:13:09.774Z,0.00
2018-01-02T06:14:09.792Z,0.00
2018-01-02T06:15:09.735Z,0.00
2018-01-02T06:16:09.717Z,0.00
2018-01-02T06:17:09.691Z,0.00
2018-01-02T06:18:09.693Z,0.00
2018-01-02T06:19:09.676Z,0.00
2018-01-02T06:20:09.634Z,0.00
2018-01-02T06:21:09.621Z,0.00
2018-01-02T06:22:09.598Z,0.00
2018-01-02T06:23:09.577Z,0.00
2018-01-02T06:24:09.593Z,0.00
2018-01-02T06:25:09.575Z,0.00
2018-01-02T06:26:09.548Z,0.00
2018-01-02T06:27:09.498Z,0.00
2018-01-02T06:28:09.493Z,0.00
2018-01-02T06:29:09.459Z,0.00
2018-01-02T06:30:09.472Z,0.00
2018-01-02T06:31:09.419Z,0.00
2018-01-02T06:32:09.400Z,0.00
2018-01-02T06:33:09.380Z,0.00
2018-01-02T06:34:09.356Z,0.00
2018-01-02T06:35:09.376Z,0.00
2018-01-02T06:36:09.319Z,0.00
2018-01-02T06:37:09.298Z,0.00
2018-01-02T06:38:09.312Z,0.00
2018-01-02T06:39:09.330Z,0.00
2018-01-02T06:40:09.276Z,0.00
2018-01-02T06:41:09.224Z,0.00
2018-01-02T06:42:09.237Z,0.00
2018-01-02T06:43:09.213Z,0.00
2018-01-02T06:44:09.197Z,0.00
2018-01-02T06:45:09.144Z,0.00
2018-01-02T06:46:09.153Z,0.00
2018-01-02T06:47:09.142Z,0.00
2018-01-02T06:48:09.105Z,0.00
2018-01-02T06:49:09.094Z,0.00
2018-01-02T06:50:09.042Z,0.00
2018-01-02T06:51:09.045Z,0.00
2018-01-02T06:52:09.002Z,0.00
2018-01-02T06:53:08.982Z,0.00
2018-01-02T06:54:08.984Z,0.00
2018-01-02T06:55:08.976Z,0.00
2018-01-02T06:56:08.928Z,0.00
2018-01-02T06:57:08.901Z,0.00
2018-01-02T06:58:08.883Z,0.00
2018-01-02T06:59:08.901Z,0.00
2018-01-02T07:00:08.847Z,0.00
2018-01-02T07:01:08.843Z,0.00
2018-01-02T07:02:08.844Z,0.00
2018-01-02T07:03:08.822Z,0.00
2018-01-02T07:04:08.783Z,0.00
2018-01-02T07:05:08.780Z,0.00
2018-01-02T07:06:08.727Z,0.00
2018-01-02T07:07:08.705Z,0.00
2018-01-02T07:08:08.720Z,0.00
2018-01-02T07:09:08.685Z,0.00
2018-01-02T07:10:08.647Z,0.00
2018-01-02T07:11:08.657Z,0.00
2018-01-02T07:12:08.608Z,0.00
2018-01-02T07:13:08.602Z,0.00
2018-01-02T07:14:08.564Z,0.00
2018-01-02T07:15:08.547Z,0.00
2018-01-02T07:16:08.530Z,0.00
2018-01-02T07:17:08.537Z,0.00
2018-01-02T07:18:08.518Z,0.00
2018-01-02T07:19:08.491Z,0.00
2018-01-02T07:20:08.451Z,0.00
2018-01-02T07:21:08.433Z,0.00
2018-01-02T07:22:08.427Z,0.00
2018-01-02T07:23:08.420Z,0.00
2018-01-02T07:24:08.365Z,0.00
2018-01-02T07:25:08.348Z,0.00
2018-01-02T07:26:08.347Z,0.00
2018-01-02T07:27:08.310Z,0.00
2018-01-02T07:28:08.286Z,0.00
2018-01-02T07:29:08.273Z,0.00
2018-01-02T07:30:08.260Z,0.00
2018-01-02T07:31:08.262Z,0.00
2018-01-02T07:32:08.245Z,0.00
2018-01-02T07:33:08.222Z,0.00
2018-01-02T07:34:08.204Z,0.00
2018-01-02T07:35:08.183Z,0.00
2018-01-02T07:36:08.165Z,0.00
2018-01-02T07:37:08.142Z,0.00
2018-01-02T07:38:08.125Z,0.00
2018-01-02T07:39:08.066Z,0.00
2018-01-02T07:40:08.083Z,0.00
2018-01-02T07:41:08.064Z,0.00
2018-01-02T07:42:08.011Z,0.00
2018-01-02T07:43:08.006Z,0.00
2018-01-02T07:44:07.966Z,0.00
2018-01-02T07:45:07.951Z,0.00
2018-01-02T07:46:07.927Z,0.00
2018-01-02T07:47:07.915Z,0.00
2018-01-02T07:48:07.888Z,0.00
2018-01-02T07:49:07.869Z,0.00
2018-01-02T07:50:07.846Z,0.00
2018-01-02T07:51:07.828Z,0.00
2018-01-02T07:52:07.810Z,0.00
2018-01-02T07:53:07.827Z,0.00
2018-01-02T07:54:07.774Z,0.00
2018-01-02T07:55:07.786Z,0.00
2018-01-02T07:56:07.728Z,0.00
2018-01-02T07:57:07.708Z,0.00
2018-01-02T07:58:07.720Z,4.00
2018-01-02T07:59:07.673Z,4.00
2018-01-02T08:00:07.670Z,0.00
2018-01-02T08:01:07.630Z,4.00
2018-01-02T08:02:07.622Z,4.00
2018-01-02T08:03:07.607Z,4.00
2018-01-02T08:04:07.588Z,8.00
2018-01-02T08:05:07.563Z,8.00
2018-01-02T08:06:07.547Z,8.00
2018-01-02T08:07:07.528Z,12.00
2018-01-02T08:08:07.489Z,16.00
2018-01-02T08:09:07.494Z,20.00
2018-01-02T08:10:07.447Z,24.00
2018-01-02T08:11:07.437Z,28.00
2018-01-02T08:12:07.408Z,36.00
2018-01-02T08:13:07.425Z,48.00
2018-01-02T08:14:07.405Z,56.00
2018-01-02T08:15:07.345Z,64.00
2018-01-02T08:16:07.336Z,76.00
2018-01-02T08:17:07.325Z,96.00
2018-01-02T08:18:07.289Z,112.00
2018-01-02T08:19:07.269Z,132.00
2018-01-02T08:20:07.282Z,156.00
2018-01-02T08:21:07.265Z,188.00
2018-01-02T08:22:07.241Z,224.00
2018-01-02T08:23:07.188Z,264.00
2018-01-02T08:24:07.169Z,312.00
2018-01-02T08:25:07.156Z,372.00
2018-01-02T08:26:07.163Z,436.00
2018-01-02T08:27:07.109Z,512.00
2018-01-02T08:28:07.094Z,596.00
2018-01-02T08:29:07.068Z,680.00
2018-01-02T08:30:07.072Z,764.00
2018-01-02T08:31:07.033Z,852.00
2018-01-02T08:32:07.049Z,952.00
2018-01-02T08:33:06.988Z,1060.00
2018-01-02T08:34:06.972Z,1184.00
2018-01-02T08:35:06.964Z,1316.00
2018-01-02T08:36:06.952Z,1496.00
2018-01-02T08:37:06.908Z,1724.00
2018-01-02T08:38:06.912Z,1880.00
2018-01-02T08:39:06.869Z,2024.00
2018-01-02T08:40:06.869Z,2140.00
2018-01-02T08:41:06.847Z,2264.00
2018-01-02T08:42:06.816Z,2392.00
2018-01-02T08:43:06.788Z,2552.00
2018-01-02T08:44:06.809Z,2756.00
2018-01-02T08:45:06.753Z,2992.00
2018-01-02T08:46:06.731Z,3240.00
2018-01-02T08:47:06.715Z,3228.00
2018-01-02T08:48:06.692Z,3348.00
2018-01-02T08:49:06.706Z,3268.00
2018-01-02T08:50:06.673Z,3400.00
2018-01-02T08:51:06.638Z,4236.00
2018-01-02T08:52:06.651Z,3820.00
2018-01-02T08:53:06.613Z,4304.00
2018-01-02T08:54:06.606Z,4384.00
2018-01-02T08:55:06.587Z,4264.00
2018-01-02T08:56:06.539Z,4328.00
2018-01-02T08:57:39.758Z,4828.00
2018-01-02T08:58:06.495Z,4800.00
2018-01-02T08:59:06.488Z,4760.00
2018-01-02T09:00:06.458Z,4980.00
2018-01-02T09:01:06.436Z,5276.00
2018-01-02T09:02:06.453Z,5548.00
2018-01-02T09:03:06.434Z,5788.00
2018-01-02T09:04:06.374Z,6024.00
2018-01-02T09:05:06.353Z,6292.00
2018-01-02T09:06:06.366Z,6632.00
2018-01-02T09:07:06.347Z,7116.00
2018-01-02T09:08:06.329Z,7652.00
2018-01-02T09:09:06.298Z,7524.00
2018-01-02T09:10:06.288Z,7736.00
2018-01-02T09:11:06.270Z,8024.00
2018-01-02T09:12:06.251Z,8356.00
2018-01-02T09:13:06.237Z,8732.00
2018-01-02T09:14:06.180Z,9148.00
2018-01-02T09:15:06.195Z,9700.00
2018-01-02T09:16:06.171Z,11636.00
2018-01-02T09:17:06.116Z,14908.00
2018-01-02T09:18:06.120Z,15904.00
2018-01-02T09:19:06.082Z,16340.00
2018-01-02T09:20:06.066Z,16504.00
2018-01-02T09:21:06.059Z,16800.00
2018-01-02T09:22:06.026Z,16928.00
2018-01-02T09:23:06.040Z,13764.00
2018-01-02T09:24:06.006Z,15172.00
2018-01-02T09:25:05.981Z,12732.00
2018-01-02T09:26:05.982Z,16756.00
2018-01-02T09:27:05.956Z,18048.00
2018-01-02T09:28:05.910Z,17408.00
2018-01-02T09:29:05.912Z,17696.00
2018-01-02T09:30:05.924Z,18240.00
2018-01-02T09:31:05.893Z,19136.00
2018-01-02T09:32:05.859Z,19776.00
2018-01-02T09:33:05.861Z,17856.00
2018-01-02T09:34:05.836Z,20160.00
2018-01-02T09:35:05.805Z,22464.00
2018-01-02T09:36:05.773Z,24064.00
2018-01-02T09:37:05.794Z,24224.00
2018-01-02T09:38:05.756Z,22176.00
2018-01-02T09:39:05.752Z,23392.00
2018-01-02T09:40:05.732Z,17472.00
2018-01-02T09:41:05.721Z,25280.00
2018-01-02T09:42:05.701Z,25216.00
2018-01-02T09:43:05.662Z,23392.00
2018-01-02T09:44:05.633Z,21344.00
2018-01-02T09:45:05.694Z,21376.00
2018-01-02T09:46:05.634Z,20928.00
2018-01-02T09:47:05.619Z,21408.00
2018-01-02T09:48:05.599Z,22208.00
2018-01-02T09:49:05.544Z,23712.00
2018-01-02T09:50:05.536Z,24480.00
2018-01-02T09:51:05.550Z,25184.00
2018-01-02T09:52:05.531Z,25312.00
2018-01-02T09:53:05.512Z,25280.00
2018-01-02T09:54:05.499Z,23840.00
2018-01-02T09:55:05.450Z,20800.00
2018-01-02T09:56:05.429Z,20960.00
2018-01-02T09:57:05.453Z,21120.00
2018-01-02T09:58:05.433Z,23776.00
2018-01-02T09:59:05.384Z,26624.00
2018-01-02T10:00:05.364Z,25472.00
2018-01-02T10:01:05.385Z,28224.00
2018-01-02T10:02:05.366Z,26560.00
2018-01-02T10:03:05.318Z,25120.00
2018-01-02T10:04:05.336Z,22208.00
2018-01-02T10:05:05.301Z,21536.00
2018-01-02T10:06:05.273Z,24512.00
2018-01-02T10:07:05.253Z,20320.00
2018-01-02T10:08:05.273Z,19360.00
2018-01-02T10:09:05.246Z,23584.00
2018-01-02T10:10:05.828Z,27072.00
2018-01-02T10:11:05.222Z,23968.00
2018-01-02T10:12:05.210Z,19712.00
2018-01-02T10:13:05.157Z,29632.00
2018-01-02T10:14:05.774Z,28864.00
2018-01-02T10:15:05.126Z,23264.00
2018-01-02T10:16:05.146Z,24640.00
2018-01-02T10:17:05.094Z,22912.00
2018-01-02T10:18:05.090Z,21568.00
2018-01-02T10:19:05.062Z,22144.00
2018-01-02T10:20:05.064Z,29248.00
2018-01-02T10:21:05.064Z,36192.00
2018-01-02T10:22:05.047Z,35360.00
2018-01-02T10:23:04.998Z,37088.00
2018-01-02T10:24:04.995Z,40864.00
2018-01-02T10:25:04.995Z,43328.00
2018-01-02T10:26:04.953Z,44640.00
2018-01-02T10:27:04.931Z,45120.00
2018-01-02T10:28:04.937Z,43456.00
2018-01-02T10:29:04.935Z,44032.00
2018-01-02T10:30:04.887Z,45632.00
2018-01-02T10:31:04.878Z,43008.00
2018-01-02T10:32:04.854Z,42848.00
2018-01-02T10:33:04.866Z,43264.00
2018-01-02T10:34:04.824Z,37888.00
2018-01-02T10:35:04.812Z,35648.00
2018-01-02T10:36:04.824Z,38944.00
2018-01-02T10:37:04.787Z,41152.00
2018-01-02T10:38:04.764Z,42816.00
2018-01-02T10:39:04.787Z,41248.00
2018-01-02T10:40:04.738Z,37216.00
2018-01-02T10:41:04.751Z,40672.00
2018-01-02T10:42:04.736Z,39008.00
2018-01-02T10:43:04.691Z,35808.00
2018-01-02T10:44:04.706Z,34400.00
2018-01-02T10:45:04.666Z,33728.00
2018-01-02T10:46:04.678Z,32928.00
2018-01-02T10:47:04.662Z,32192.00
2018-01-02T10:48:04.645Z,31840.00
2018-01-02T10:49:04.628Z,31296.00
2018-01-02T10:50:04.600Z,31168.00
2018-01-02T10:51:04.596Z,31392.00
2018-01-02T10:52:04.584Z,31424.00
2018-01-02T10:53:04.566Z,32192.00
2018-01-02T10:54:04.548Z,32704.00
2018-01-02T10:55:04.497Z,34848.00
2018-01-02T10:56:04.488Z,36064.00
2018-01-02T10:57:04.500Z,31328.00
2018-01-02T10:58:04.453Z,30528.00
2018-01-02T10:59:04.439Z,30368.00
2018-01-02T11:00:04.426Z,30496.00
2018-01-02T11:01:04.406Z,31456.00
2018-01-02T11:02:04.393Z,32960.00
2018-01-02T11:03:04.370Z,40448.00
2018-01-02T11:04:04.354Z,32736.00
2018-01-02T11:05:04.334Z,31616.00
2018-01-02T11:06:04.320Z,31712.00
2018-01-02T11:07:04.304Z,32032.00
2018-01-02T11:08:04.292Z,28704.00
2018-01-02T11:09:04.311Z,30592.00
2018-01-02T11:10:04.261Z,32864.00
2018-01-02T11:11:04.237Z,34368.00
2018-01-02T11:12:04.220Z,34944.00
2018-01-02T11:13:04.237Z,36064.00
2018-01-02T11:14:04.227Z,37632.00
2018-01-02T11:15:04.178Z,38592.00
2018-01-02T11:16:04.169Z,43008.00
2018-01-02T11:17:04.174Z,44096.00
2018-01-02T11:18:04.124Z,46976.00
2018-01-02T11:19:04.104Z,47616.00
2018-01-02T11:20:04.092Z,47264.00
2018-01-02T11:21:04.072Z,42144.00
2018-01-02T11:22:04.056Z,39232.00
2018-01-02T11:23:04.043Z,36640.00
2018-01-02T11:24:04.060Z,36352.00
2018-01-02T11:25:04.013Z,39168.00
2018-01-02T11:26:04.008Z,39424.00
2018-01-02T11:27:03.979Z,40672.00
2018-01-02T11:28:03.962Z,43584.00
2018-01-02T11:29:03.981Z,43712.00
2018-01-02T11:30:03.931Z,41952.00
2018-01-02T11:31:03.948Z,39808.00
2018-01-02T11:32:03.933Z,38656.00
2018-01-02T11:33:03.894Z,38400.00
2018-01-02T11:34:03.901Z,39392.00
2018-01-02T11:35:03.888Z,39904.00
2018-01-02T11:36:03.875Z,42080.00
2018-01-02T11:37:03.827Z,41952.00
2018-01-02T11:38:03.805Z,43136.00
2018-01-02T11:39:03.794Z,44032.00
2018-01-02T11:40:03.804Z,48608.00
2018-01-02T11:41:03.767Z,51936.00
2018-01-02T11:42:03.780Z,52160.00
2018-01-02T11:43:03.737Z,47680.00
2018-01-02T11:44:03.747Z,49728.00
2018-01-02T11:45:03.713Z,49568.00
2018-01-02T11:46:03.723Z,45504.00
2018-01-02T11:47:03.669Z,43488.00
2018-01-02T11:48:03.656Z,50400.00
2018-01-02T11:49:03.679Z,53952.00
2018-01-02T11:50:03.661Z,54752.00
2018-01-02T11:51:03.615Z,57120.00
2018-01-02T11:52:03.633Z,57536.00
2018-01-02T11:53:03.583Z,63680.00
2018-01-02T11:54:03.584Z,58656.00
2018-01-02T11:55:03.570Z,60608.00
2018-01-02T11:56:03.550Z,58336.00
2018-01-02T11:57:03.536Z,67680.00
2018-01-02T11:58:03.506Z,59136.00
2018-01-02T11:59:03.498Z,39840.00
2018-01-02T12:00:03.495Z,31968.00
2018-01-02T12:01:03.484Z,27840.00
2018-01-02T12:02:03.470Z,26720.00
2018-01-02T12:03:03.452Z,24832.00
2018-01-02T12:04:03.418Z,21440.00
2018-01-02T12:05:03.405Z,20704.00
2018-01-02T12:06:03.391Z,19200.00
2018-01-02T12:07:03.373Z,21408.00
2018-01-02T12:08:03.376Z,19808.00
2018-01-02T12:09:03.357Z,18080.00
2018-01-02T12:10:03.326Z,19168.00
2018-01-02T12:11:03.313Z,19904.00
2018-01-02T12:12:03.302Z,18112.00
2018-01-02T12:13:03.320Z,17184.00
2018-01-02T12:14:03.297Z,18368.00
2018-01-02T12:15:03.285Z,21376.00
2018-01-02T12:16:03.250Z,24000.00
2018-01-02T12:17:03.247Z,27648.00
2018-01-02T12:18:03.198Z,31968.00
2018-01-02T12:19:03.221Z,33792.00
2018-01-02T12:20:03.175Z,32160.00
2018-01-02T12:21:03.145Z,29312.00
2018-01-02T12:22:03.155Z,30016.00
2018-01-02T12:23:03.135Z,28128.00
2018-01-02T12:24:03.095Z,24928.00
2018-01-02T12:25:03.093Z,26720.00
2018-01-02T12:26:03.099Z,24192.00
2018-01-02T12:27:03.076Z,21856.00
2018-01-02T12:28:03.030Z,24768.00
2018-01-02T12:29:03.039Z,27392.00
2018-01-02T12:30:02.992Z,24448.00
2018-01-02T12:31:03.015Z,23168.00
2018-01-02T12:32:02.962Z,26048.00
2018-01-02T12:33:02.977Z,23776.00
2018-01-02T12:34:02.964Z,24800.00
2018-01-02T12:35:02.941Z,24480.00
2018-01-02T12:36:02.890Z,25056.00
2018-01-02T12:37:02.874Z,27296.00
2018-01-02T12:38:02.893Z,29600.00
2018-01-02T12:39:02.845Z,30016.00
2018-01-02T12:40:02.823Z,28160.00
2018-01-02T12:41:02.840Z,24960.00
2018-01-02T12:42:02.824Z,22560.00
2018-01-02T12:43:02.776Z,17440.00
2018-01-02T12:44:02.770Z,17664.00